Time;durP1;ratioP1;P1;durP2;ratioP2;P2;SDS_P1;SDS_P2;PMS_P1;PMS_P2;Temp;Humidity;BMP_temperature;BMP_pressure;BME280_temperature;BME280_humidity;BME280_pressure;Samples;Min_cycle;Max_cycle;Signal;HPM_P1;HPM_P2
2022/10/19 00:00:19;;;;;;;8.10;1.20;;;;;;;10.70;100.00;102526.28;5021940;28;20654;-47
2022/10/19 00:02:45;;;;;;;3.45;1.00;;;;;;;10.69;100.00;102533.44;5018536;28;20217;-46
2022/10/19 00:05:10;;;;;;;9.18;1.77;;;;;;;10.63;100.00;102532.63;5015808;28;20188;-50
2022/10/19 00:07:36;;;;;;;8.98;1.45;;;;;;;10.63;100.00;102525.47;5018650;28;20743;-51
2022/10/19 00:10:02;;;;;;;6.05;1.58;;;;;;;10.58;100.00;102524.59;5014736;28;20177;-51
2022/10/19 00:12:28;;;;;;;7.45;1.88;;;;;;;10.55;100.00;102526.44;5022243;28;20203;-50
2022/10/19 00:14:53;;;;;;;8.57;1.50;;;;;;;10.56;100.00;102522.84;5020737;28;20676;-49
2022/10/19 00:17:19;;;;;;;5.80;1.10;;;;;;;10.62;100.00;102529.03;5018403;28;20213;-51
2022/10/19 00:19:44;;;;;;;6.47;1.30;;;;;;;10.57;100.00;102524.63;5019333;28;20183;-49
2022/10/19 00:22:09;;;;;;;6.78;1.23;;;;;;;10.65;100.00;102528.13;5005122;28;20266;-49
2022/10/19 00:24:35;;;;;;;5.57;1.30;;;;;;;10.57;100.00;102514.78;5018791;28;20196;-50
2022/10/19 00:27:00;;;;;;;8.15;0.98;;;;;;;10.50;100.00;102522.00;5020111;28;20647;-50
2022/10/19 00:29:26;;;;;;;4.28;1.15;;;;;;;10.51;100.00;102525.56;5019896;28;20183;-48
2022/10/19 00:31:51;;;;;;;9.20;1.42;;;;;;;10.52;100.00;102532.72;5019493;28;20211;-50
2022/10/19 00:34:17;;;;;;;7.53;1.27;;;;;;;10.58;100.00;102532.63;5019871;28;20200;-50
2022/10/19 00:36:43;;;;;;;5.57;1.05;;;;;;;10.53;100.00;102534.50;5020291;28;20626;-50
2022/10/19 00:39:14;;;;;;;5.30;1.20;;;;;;;10.57;100.00;102527.31;5022341;28;20191;-50
2022/10/19 00:41:40;;;;;;;11.02;1.75;;;;;;;10.53;100.00;102539.84;5018966;28;20646;-51
2022/10/19 00:44:46;;;;;;;7.30;1.05;;;;;;;10.56;100.00;102538.94;5023012;28;20216;-47
2022/10/19 00:47:11;;;;;;;6.25;1.63;;;;;;;10.49;100.00;102528.28;5008232;28;20575;-47
2022/10/19 00:49:41;;;;;;;10.30;1.70;;;;;;;10.46;100.00;102536.34;5022987;28;20172;-50
2022/10/19 00:52:11;;;;;;;9.05;1.30;;;;;;;10.48;100.00;102541.69;5024014;28;20168;-48
2022/10/19 00:54:40;;;;;;;7.75;1.35;;;;;;;10.52;100.00;102541.66;5006517;28;20239;-49
2022/10/19 00:57:07;;;;;;;11.32;1.42;;;;;;;10.50;100.00;102532.75;5021080;28;20674;-48
2022/10/19 00:59:33;;;;;;;10.63;1.70;;;;;;;10.49;100.00;102539.03;5017754;28;20200;-46
2022/10/19 01:02:01;;;;;;;10.02;1.58;;;;;;;10.57;100.00;102532.69;5002515;28;20196;-45
2022/10/19 01:04:29;;;;;;;7.30;1.70;;;;;;;10.53;100.00;102537.16;5007748;28;20204;-45
2022/10/19 01:06:55;;;;;;;7.95;1.70;;;;;;;10.56;100.00;102542.50;5015446;28;20288;-45
2022/10/19 01:09:21;;;;;;;12.68;1.73;;;;;;;10.56;100.00;102545.19;5022943;28;20199;-49
2022/10/19 01:12:13;;;;;;;15.65;1.55;;;;;;;10.61;100.00;102532.63;5020257;28;20631;-46
2022/10/19 01:14:47;;;;;;;9.02;1.90;;;;;;;10.62;100.00;102545.09;5019874;28;20216;-45
2022/10/19 01:17:21;;;;;;;11.27;2.00;;;;;;;10.63;100.00;102548.69;5021900;28;20735;-45
2022/10/19 01:19:49;;;;;;;11.35;1.85;;;;;;;10.62;100.00;102542.44;5020873;28;20183;-45
2022/10/19 01:22:29;;;;;;;8.60;1.77;;;;;;;10.65;100.00;102531.69;5000662;28;20243;-47
2022/10/19 01:25:19;;;;;;;12.77;1.67;;;;;;;10.61;100.00;102540.66;5018561;28;20181;-45
2022/10/19 01:28:00;;;;;;;11.70;2.25;;;;;;;10.62;100.00;102547.78;5020590;28;20659;-45
2022/10/19 01:30:25;;;;;;;13.25;1.60;;;;;;;10.59;100.00;102547.84;5015918;28;20223;-46
2022/10/19 01:33:00;;;;;;;17.25;2.67;;;;;;;10.56;100.00;102547.88;5017179;28;20576;-45
2022/10/19 01:35:48;;;;;;;8.48;1.65;;;;;;;10.56;100.00;102545.19;5018570;28;20662;-46
2022/10/19 01:38:13;;;;;;;7.88;1.55;;;;;;;10.64;100.00;102551.34;5015692;28;20287;-45
2022/10/19 01:41:00;;;;;;;9.07;1.60;;;;;;;10.62;100.00;102541.53;5010188;28;20283;-50
2022/10/19 01:43:31;;;;;;;8.77;1.90;;;;;;;10.61;100.00;102554.06;5008576;28;20213;-46
2022/10/19 01:46:05;;;;;;;9.40;1.52;;;;;;;10.60;100.00;102548.72;5020522;28;20180;-50
2022/10/19 01:48:34;;;;;;;8.13;1.92;;;;;;;10.60;100.00;102554.94;5021875;28;20192;-49
2022/10/19 01:51:04;;;;;;;15.57;1.90;;;;;;;10.56;100.00;102557.69;5021064;28;20195;-45
2022/10/19 01:53:37;;;;;;;8.82;1.67;;;;;;;10.51;100.00;102555.94;4995833;28;20199;-44
2022/10/19 01:56:04;;;;;;;9.20;1.70;;;;;;;10.52;100.00;102547.00;5016140;28;20200;-46
2022/10/19 01:58:33;;;;;;;9.68;1.60;;;;;;;10.53;100.00;102553.25;5021426;28;20200;-49
2022/10/19 02:01:02;;;;;;;13.95;2.28;;;;;;;10.45;100.00;102555.13;5021221;28;20184;-45
2022/10/19 02:03:28;;;;;;;10.00;1.75;;;;;;;10.50;100.00;102558.66;5015291;28;20223;-46
2022/10/19 02:05:55;;;;;;;9.73;1.75;;;;;;;10.52;100.00;102549.69;5001049;28;20192;-48
2022/10/19 02:08:29;;;;;;;10.90;1.70;;;;;;;10.46;100.00;102548.88;5014399;28;20176;-45
2022/10/19 02:10:56;;;;;;;9.55;2.08;;;;;;;10.32;100.00;102559.72;4999504;28;20188;-45
2022/10/19 02:13:25;;;;;;;11.57;1.63;;;;;;;10.24;100.00;102549.03;5015751;28;20561;-47
2022/10/19 02:15:53;;;;;;;14.70;2.15;;;;;;;10.17;100.00;102555.34;5013888;28;20224;-47
2022/10/19 02:18:25;;;;;;;14.20;1.80;;;;;;;10.20;100.00;102560.69;5011513;28;20207;-46
2022/10/19 02:20:51;;;;;;;11.05;1.73;;;;;;;10.08;100.00;102555.44;5016177;28;20177;-47
2022/10/19 02:23:21;;;;;;;9.75;1.73;;;;;;;10.06;100.00;102558.13;5013677;28;20295;-47
2022/10/19 02:25:47;;;;;;;9.57;1.40;;;;;;;10.04;100.00;102564.41;5017722;28;20271;-46
2022/10/19 02:28:12;;;;;;;10.52;1.67;;;;;;;9.93;100.00;102551.09;5012723;28;20288;-47
2022/10/19 02:30:38;;;;;;;12.52;1.88;;;;;;;9.95;100.00;102564.44;5018177;28;20208;-47
2022/10/19 02:33:03;;;;;;;6.13;1.35;;;;;;;9.94;100.00;102563.56;5017715;28;20532;-46
2022/10/19 02:35:29;;;;;;;8.25;1.63;;;;;;;9.95;100.00;102564.44;5015825;28;20192;-47
2022/10/19 02:38:01;;;;;;;5.57;1.38;;;;;;;9.90;100.00;102561.81;5016288;28;20535;-45
2022/10/19 02:40:28;;;;;;;7.20;1.85;;;;;;;9.85;100.00;102559.16;5014736;28;20199;-47
2022/10/19 02:43:00;;;;;;;8.48;1.52;;;;;;;9.84;100.00;102562.75;5016079;28;20559;-46
2022/10/19 02:45:42;;;;;;;12.13;1.95;;;;;;;9.70;100.00;102570.00;5020287;28;20273;-47
2022/10/19 02:48:17;;;;;;;9.90;1.90;;;;;;;9.63;100.00;102571.81;5013504;28;20184;-47
2022/10/19 02:50:44;;;;;;;9.68;1.95;;;;;;;9.45;100.00;102574.63;5016515;28;20198;-47
2022/10/19 02:53:09;;;;;;;9.07;1.90;;;;;;;9.51;100.00;102573.66;5014990;28;20204;-46
2022/10/19 02:55:35;;;;;;;10.80;2.03;;;;;;;9.48;100.00;102577.25;5020150;28;20278;-47
2022/10/19 02:58:00;;;;;;;10.27;1.95;;;;;;;9.45;100.00;102578.16;5015056;28;20255;-47
2022/10/19 03:00:25;;;;;;;7.97;1.67;;;;;;;9.51;100.00;102584.38;5015179;28;20651;-47
2022/10/19 03:02:51;;;;;;;9.70;2.00;;;;;;;9.48;100.00;102587.97;5012877;28;20208;-47
2022/10/19 03:05:16;;;;;;;12.32;1.92;;;;;;;9.44;100.00;102586.19;5016292;28;20209;-45
2022/10/19 03:07:42;;;;;;;19.20;2.55;;;;;;;9.35;100.00;102587.13;5021114;28;20199;-44
2022/10/19 03:10:08;;;;;;;9.43;1.75;;;;;;;9.42;100.00;102588.00;5020198;28;20283;-42
2022/10/19 03:12:33;;;;;;;11.00;1.80;;;;;;;9.38;100.00;102589.81;5018651;28;20188;-44
2022/10/19 03:14:59;;;;;;;9.65;1.77;;;;;;;9.40;100.00;102587.09;5002045;28;20260;-47
2022/10/19 03:17:24;;;;;;;8.52;1.70;;;;;;;9.47;100.00;102597.78;5019430;28;20200;-47
2022/10/19 03:19:50;;;;;;;11.75;2.33;;;;;;;9.52;100.00;102597.75;5018049;28;20204;-44
2022/10/19 03:22:15;;;;;;;16.38;2.13;;;;;;;9.58;100.00;102596.84;5009487;28;20247;-46
2022/10/19 03:24:41;;;;;;;11.40;2.05;;;;;;;9.70;100.00;102596.75;5014743;28;20204;-47
2022/10/19 03:27:06;;;;;;;12.60;2.08;;;;;;;9.69;100.00;102600.34;5013285;28;20619;-47
2022/10/19 03:29:32;;;;;;;12.43;2.13;;;;;;;9.69;100.00;102600.34;5016263;28;20743;-47
2022/10/19 03:31:57;;;;;;;12.48;1.92;;;;;;;9.63;100.00;102603.06;5020105;28;20207;-47
2022/10/19 03:34:23;;;;;;;14.68;2.72;;;;;;;9.68;100.00;102599.44;5018601;28;20270;-46
2022/10/19 03:36:48;;;;;;;13.75;2.75;;;;;;;9.66;100.00;102606.59;5015738;28;20284;-47
2022/10/19 03:39:15;;;;;;;10.38;1.80;;;;;;;9.66;100.00;102603.00;5014542;28;20204;-46
2022/10/19 03:41:41;;;;;;;18.70;2.78;;;;;;;9.69;100.00;102614.59;5004906;28;20586;-47
2022/10/19 03:44:08;;;;;;;15.23;2.45;;;;;;;9.77;100.00;102611.88;5024485;28;20223;-47
2022/10/19 03:46:35;;;;;;;13.05;2.40;;;;;;;9.76;100.00;102611.91;5017230;28;20749;-46
2022/10/19 03:49:01;;;;;;;11.57;2.20;;;;;;;9.77;100.00;102619.00;5021130;28;20183;-47
2022/10/19 03:51:29;;;;;;;10.98;2.28;;;;;;;9.78;100.00;102612.78;5019168;28;20188;-46
2022/10/19 03:53:58;;;;;;;19.80;2.88;;;;;;;9.75;100.00;102615.47;5015863;28;20204;-46
2022/10/19 03:56:25;;;;;;;13.77;2.20;;;;;;;9.73;100.00;102614.56;5016056;28;20581;-47
2022/10/19 03:58:53;;;;;;;10.35;2.38;;;;;;;9.79;100.00;102626.13;5014673;28;20703;-45
2022/10/19 04:01:31;;;;;;;10.07;2.08;;;;;;;9.79;100.00;102617.22;5017153;28;20184;-47
2022/10/19 04:03:59;;;;;;;9.75;2.13;;;;;;;9.81;100.00;102621.66;5016586;28;20274;-47
2022/10/19 04:06:30;;;;;;;11.88;1.88;;;;;;;9.86;100.00;102635.00;5019326;28;20237;-47
2022/10/19 04:08:56;;;;;;;12.98;2.30;;;;;;;9.85;100.00;102622.53;5020089;28;20210;-46
2022/10/19 04:11:25;;;;;;;14.98;2.50;;;;;;;9.86;100.00;102633.25;5015083;28;20329;-49
2022/10/19 04:13:51;;;;;;;17.27;2.65;;;;;;;9.86;100.00;102629.66;5017153;28;20836;-46
2022/10/19 04:16:19;;;;;;;12.98;2.17;;;;;;;9.85;100.00;102628.78;5018612;28;20236;-48
2022/10/19 04:18:45;;;;;;;14.65;2.60;;;;;;;9.84;100.00;102631.50;5018725;28;20195;-48
2022/10/19 04:21:24;;;;;;;13.07;2.70;;;;;;;9.84;100.00;102637.72;5017020;28;20263;-48
2022/10/19 04:23:58;;;;;;;16.75;2.90;;;;;;;9.88;100.00;102644.84;5025289;28;20577;-46
2022/10/19 04:26:23;;;;;;;12.20;2.58;;;;;;;9.96;100.00;102643.91;5015985;28;20639;-46
2022/10/19 04:28:49;;;;;;;21.00;2.78;;;;;;;9.98;100.00;102645.66;5018615;28;20187;-46
2022/10/19 04:31:14;;;;;;;8.70;1.98;;;;;;;9.99;100.00;102646.53;5016284;28;20231;-46
2022/10/19 04:33:40;;;;;;;12.30;2.38;;;;;;;10.01;100.00;102650.09;5023325;28;20249;-47
2022/10/19 04:36:08;;;;;;;15.00;2.70;;;;;;;10.02;100.00;102649.22;5020436;28;20614;-47
2022/10/19 04:38:34;;;;;;;21.83;3.65;;;;;;;10.05;100.00;102660.78;5013197;28;20185;-47
2022/10/19 04:41:02;;;;;;;15.38;2.95;;;;;;;10.05;100.00;102658.09;5017963;28;20242;-47
2022/10/19 04:43:28;;;;;;;18.10;3.33;;;;;;;10.19;100.00;102660.69;5017869;28;20321;-48
2022/10/19 04:45:53;;;;;;;14.10;2.42;;;;;;;10.18;100.00;102663.38;5018211;28;20284;-48
2022/10/19 04:48:19;;;;;;;13.82;2.28;;;;;;;10.20;100.00;102657.09;5016033;28;20181;-48
2022/10/19 04:50:44;;;;;;;11.02;2.58;;;;;;;10.15;100.00;102658.06;5026378;28;20220;-48
2022/10/19 04:53:18;;;;;;;17.92;2.65;;;;;;;10.10;100.00;102666.09;5012287;28;20232;-49
2022/10/19 04:55:45;;;;;;;17.77;2.45;;;;;;;10.09;100.00;102658.97;5013829;28;20320;-49
2022/10/19 04:58:10;;;;;;;16.50;2.53;;;;;;;10.10;100.00;102660.75;5010685;28;20615;-46
2022/10/19 05:00:39;;;;;;;11.10;2.22;;;;;;;10.07;100.00;102676.84;5022210;28;20183;-48
2022/10/19 05:03:04;;;;;;;15.30;2.80;;;;;;;9.99;100.00;102681.34;5009732;28;20208;-47
2022/10/19 05:05:31;;;;;;;15.45;3.55;;;;;;;9.87;100.00;102676.97;5014259;28;20196;-50
2022/10/19 05:07:57;;;;;;;13.60;3.00;;;;;;;9.79;100.00;102677.00;5017106;28;20219;-48
2022/10/19 05:10:22;;;;;;;17.75;2.78;;;;;;;9.79;100.00;102684.16;5024355;28;20598;-48
2022/10/19 05:12:48;;;;;;;17.80;2.88;;;;;;;9.76;100.00;102692.19;5008878;28;20212;-48
2022/10/19 05:15:13;;;;;;;18.02;3.38;;;;;;;9.72;100.00;102695.78;5021005;28;20203;-46
2022/10/19 05:17:39;;;;;;;16.25;3.10;;;;;;;9.56;100.00;102701.22;5015124;28;20207;-49
2022/10/19 05:20:05;;;;;;;12.60;2.53;;;;;;;9.65;100.00;102706.50;5021859;28;20478;-48
2022/10/19 05:22:30;;;;;;;14.13;2.67;;;;;;;9.72;100.00;102706.50;5027061;28;20184;-48
2022/10/19 05:24:56;;;;;;;11.90;2.72;;;;;;;9.63;100.00;102697.59;5018277;28;20658;-48
2022/10/19 05:27:21;;;;;;;15.48;2.80;;;;;;;9.58;100.00;102695.84;5011469;28;20185;-50
2022/10/19 05:29:47;;;;;;;18.52;3.63;;;;;;;9.48;100.00;102708.38;5021796;28;20697;-48
2022/10/19 05:32:12;;;;;;;11.38;2.33;;;;;;;9.49;100.00;102712.84;5000828;28;20204;-49
2022/10/19 05:34:38;;;;;;;13.50;2.85;;;;;;;9.40;100.00;102716.44;5021579;28;20207;-47
2022/10/19 05:37:03;;;;;;;14.35;2.30;;;;;;;9.42;100.00;102711.06;5013840;28;20255;-50
2022/10/19 05:39:29;;;;;;;16.45;3.10;;;;;;;9.20;100.00;102719.13;5017983;28;20192;-50
2022/10/19 05:41:54;;;;;;;21.45;3.20;;;;;;;9.28;100.00;102720.00;5019407;28;20612;-48
2022/10/19 05:44:22;;;;;;;14.65;2.78;;;;;;;9.36;100.00;102711.06;5013064;28;20208;-49
2022/10/19 05:46:49;;;;;;;13.80;3.05;;;;;;;9.38;100.00;102712.88;5003053;28;20282;-49
2022/10/19 05:49:16;;;;;;;13.88;2.90;;;;;;;9.38;100.00;102723.56;5009904;28;20246;-47
2022/10/19 05:51:43;;;;;;;15.15;3.08;;;;;;;9.35;100.00;102723.56;5015070;28;20275;-50
2022/10/19 05:54:13;;;;;;;14.27;2.58;;;;;;;9.37;100.00;102716.41;5016287;28;20860;-48
2022/10/19 05:56:39;;;;;;;16.35;2.58;;;;;;;9.39;100.00;102714.63;5018846;28;20193;-51
2022/10/19 05:59:06;;;;;;;20.90;2.60;;;;;;;9.42;100.00;102720.00;5021354;28;20228;-49
2022/10/19 06:01:33;;;;;;;17.20;2.83;;;;;;;9.34;100.00;102723.59;5012818;28;20208;-49
2022/10/19 06:03:59;;;;;;;21.17;4.25;;;;;;;9.39;100.00;102730.69;5021316;28;20220;-50
2022/10/19 06:06:26;;;;;;;18.17;2.92;;;;;;;9.48;100.00;102727.97;5018237;28;20237;-45
2022/10/19 06:08:53;;;;;;;17.52;2.85;;;;;;;9.54;100.00;102728.88;5018483;28;20177;-42
2022/10/19 06:11:21;;;;;;;17.30;3.35;;;;;;;9.55;100.00;102731.53;5014592;28;20185;-43
2022/10/19 06:13:49;;;;;;;25.23;3.40;;;;;;;9.54;100.00;102740.47;5012658;28;20212;-43
2022/10/19 06:16:16;;;;;;;15.88;2.97;;;;;;;9.52;100.00;102741.38;5012770;28;20216;-42
2022/10/19 06:18:42;;;;;;;13.13;2.78;;;;;;;9.58;100.00;102739.56;5017381;28;20188;-44
2022/10/19 06:21:13;;;;;;;12.93;2.45;;;;;;;9.52;100.00;102733.34;5019800;28;20610;-43
2022/10/19 06:23:39;;;;;;;15.20;2.53;;;;;;;9.48;100.00;102744.03;5016689;28;20216;-42
2022/10/19 06:26:10;;;;;;;13.77;2.08;;;;;;;9.48;100.00;102736.00;5015040;28;20184;-45
2022/10/19 06:28:37;;;;;;;14.82;2.75;;;;;;;9.52;100.00;102739.56;5018800;28;20614;-45
2022/10/19 06:31:03;;;;;;;9.82;2.00;;;;;;;9.56;100.00;102749.38;5006446;28;20203;-44
2022/10/19 06:33:30;;;;;;;10.57;2.15;;;;;;;9.39;100.00;102751.22;5002317;28;20567;-45
2022/10/19 06:36:03;;;;;;;11.88;2.55;;;;;;;9.37;100.00;102756.56;5001930;28;20620;-45
2022/10/19 06:38:29;;;;;;;14.63;3.40;;;;;;;9.31;100.00;102743.19;5015774;28;20237;-47
2022/10/19 06:40:57;;;;;;;16.13;3.13;;;;;;;9.33;100.00;102757.44;5017119;28;20200;-45
2022/10/19 06:43:23;;;;;;;11.02;2.30;;;;;;;9.45;100.00;102751.19;5012141;28;20204;-44
2022/10/19 06:45:48;;;;;;;24.35;3.50;;;;;;;9.42;100.00;102753.84;5013853;28;20326;-46
2022/10/19 06:48:14;;;;;;;11.77;2.35;;;;;;;9.45;100.00;102757.44;5023866;28;20394;-49
2022/10/19 06:50:39;;;;;;;11.02;2.38;;;;;;;9.53;100.00;102767.22;5062710;22;20219;-47
2022/10/19 06:53:05;;;;;;;10.48;2.05;;;;;;;9.54;100.00;102763.66;5038819;28;20660;-50
2022/10/19 06:55:30;;;;;;;8.32;1.50;;;;;;;9.70;100.00;102757.34;5037803;28;20222;-48
2022/10/19 06:57:57;;;;;;;3.65;1.30;;;;;;;10.08;100.00;102751.84;5031059;28;20231;-46
2022/10/19 07:00:23;;;;;;;8.68;1.48;;;;;;;10.02;100.00;102756.34;5035948;28;20702;-47
2022/10/19 07:02:48;;;;;;;2.00;0.82;;;;;;;10.04;100.00;102750.06;5036030;28;20303;-45
2022/10/19 07:05:14;;;;;;;2.38;1.20;;;;;;;10.21;100.00;102747.31;5042065;28;20215;-51
2022/10/19 07:07:39;;;;;;;3.97;1.02;;;;;;;10.23;100.00;102745.50;5040209;28;20556;-46
2022/10/19 07:10:05;;;;;;;6.82;1.08;;;;;;;10.60;100.00;102750.63;5038408;28;20187;-46
2022/10/19 07:12:30;;;;;;;4.97;1.20;;;;;;;10.44;100.00;102747.16;5037292;28;20677;-47
2022/10/19 07:14:56;;;;;;;5.82;1.20;;;;;;;10.38;100.00;102757.03;5023192;28;20226;-45
2022/10/19 07:17:22;;;;;;;4.97;1.30;;;;;;;10.28;100.00;102742.78;5043305;28;20200;-47
2022/10/19 07:19:47;;;;;;;2.65;0.82;;;;;;;10.23;100.00;102750.88;5042872;28;20659;-46
2022/10/19 07:22:13;;;;;;;4.63;0.90;;;;;;;10.20;100.00;102760.69;5038712;28;20194;-46
2022/10/19 07:24:38;;;;;;;4.80;0.80;;;;;;;10.11;100.00;102753.59;5034823;28;20292;-48
2022/10/19 07:27:04;;;;;;;3.92;1.00;;;;;;;10.12;100.00;102758.03;5032171;28;20673;-48
2022/10/19 07:29:29;;;;;;;4.78;1.17;;;;;;;10.17;100.00;102764.28;5040597;28;20650;-46
2022/10/19 07:31:55;;;;;;;4.68;0.90;;;;;;;10.17;100.00;102763.41;5033474;28;20188;-46
2022/10/19 07:34:21;;;;;;;3.40;1.00;;;;;;;10.17;100.00;102766.97;5037515;28;20611;-47
2022/10/19 07:36:49;;;;;;;4.50;1.05;;;;;;;10.19;100.00;102770.53;5038731;28;20227;-46
2022/10/19 07:39:18;;;;;;;1.75;0.80;;;;;;;10.15;100.00;102776.78;5030479;28;20665;-48
2022/10/19 07:41:44;;;;;;;3.63;0.85;;;;;;;10.15;100.00;102775.91;5041104;28;20186;-49
2022/10/19 07:44:09;;;;;;;4.43;0.90;;;;;;;10.19;100.00;102774.97;5043513;28;20690;-47
2022/10/19 07:46:38;;;;;;;4.15;1.10;;;;;;;10.21;100.00;102771.41;5041218;28;20180;-48
2022/10/19 07:49:08;;;;;;;3.03;0.60;;;;;;;10.24;100.00;102765.16;5038668;28;20196;-48
2022/10/19 07:51:34;;;;;;;3.22;0.80;;;;;;;10.23;100.00;102772.28;5036719;28;20192;-46
2022/10/19 07:54:00;;;;;;;2.70;0.85;;;;;;;10.30;100.00;102787.47;5037940;28;20199;-49
2022/10/19 07:56:26;;;;;;;2.55;0.68;;;;;;;10.28;100.00;102770.47;5043114;28;20556;-47
2022/10/19 07:58:55;;;;;;;2.42;0.85;;;;;;;10.36;100.00;102774.91;5036086;28;20677;-47
2022/10/19 08:01:23;;;;;;;5.53;1.38;;;;;;;10.55;100.00;102776.59;5034521;28;20705;-48
2022/10/19 08:03:51;;;;;;;5.65;0.77;;;;;;;10.59;100.00;102782.81;5050999;28;20200;-46
2022/10/19 08:06:18;;;;;;;3.47;0.73;;;;;;;10.50;100.00;102783.78;5052895;28;20164;-47
2022/10/19 08:08:45;;;;;;;3.05;0.98;;;;;;;10.74;99.31;102784.50;5052257;28;20614;-47
2022/10/19 08:11:24;;;;;;;2.42;0.88;;;;;;;10.91;98.68;102771.81;5052266;28;20638;-47
2022/10/19 08:13:50;;;;;;;2.15;0.57;;;;;;;10.94;97.82;102787.91;5052237;28;20202;-45
2022/10/19 08:16:28;;;;;;;2.55;0.68;;;;;;;11.05;97.34;102791.38;5052364;28;20191;-46
2022/10/19 08:18:59;;;;;;;3.50;0.60;;;;;;;11.03;97.00;102787.81;5052139;28;20171;-46
2022/10/19 08:21:26;;;;;;;1.55;0.77;;;;;;;11.21;96.63;102793.94;5040140;28;20634;-47
2022/10/19 08:23:52;;;;;;;1.77;0.70;;;;;;;11.17;96.59;102800.22;5032265;28;20192;-45
2022/10/19 08:26:18;;;;;;;4.07;0.80;;;;;;;11.23;96.18;102794.81;5031880;28;20206;-45
2022/10/19 08:28:43;;;;;;;4.10;0.90;;;;;;;11.43;95.68;102791.94;5014289;28;20208;-46
2022/10/19 08:31:15;;;;;;;3.92;0.80;;;;;;;11.58;95.38;102798.94;5032157;28;20359;-48
2022/10/19 08:33:41;;;;;;;3.70;0.60;;;;;;;11.73;94.66;102798.75;5031582;28;20200;-45
2022/10/19 08:36:08;;;;;;;4.07;0.60;;;;;;;12.26;94.33;102791.84;5031708;28;20238;-46
2022/10/19 08:38:35;;;;;;;3.85;1.20;;;;;;;12.32;93.11;102802.50;5031390;28;20218;-47
2022/10/19 08:41:38;;;;;;;2.83;0.68;;;;;;;11.87;92.37;102803.97;5031468;28;20168;-46
2022/10/19 08:44:35;;;;;;;4.68;0.55;;;;;;;11.88;91.67;102798.63;5029491;28;20226;-45
2022/10/19 08:47:37;;;;;;;3.10;0.85;;;;;;;12.01;91.53;102793.09;5031565;28;20164;-45
2022/10/19 08:50:29;;;;;;;2.85;0.70;;;;;;;11.89;91.46;102799.50;5031476;28;20263;-47
2022/10/19 08:53:01;;;;;;;2.60;0.90;;;;;;;12.12;91.48;102799.22;5024209;28;20222;-44
2022/10/19 08:55:51;;;;;;;2.75;0.77;;;;;;;11.85;91.70;102809.38;5050911;28;20176;-44
2022/10/19 08:58:42;;;;;;;2.88;0.70;;;;;;;11.68;91.67;102812.25;5046707;28;20297;-45
2022/10/19 09:01:43;;;;;;;4.10;0.70;;;;;;;11.66;91.97;102795.25;5050071;28;20186;-47
2022/10/19 09:04:21;;;;;;;4.28;0.65;;;;;;;11.63;91.68;102799.75;5017671;28;20575;-44
2022/10/19 09:06:59;;;;;;;1.42;0.52;;;;;;;12.06;91.59;102802.84;5040742;28;20544;-45
2022/10/19 09:09:28;;;;;;;1.70;0.57;;;;;;;11.99;90.40;102805.66;5040574;28;20199;-43
2022/10/19 09:12:01;;;;;;;4.70;0.63;;;;;;;11.93;89.81;102803.94;5050286;28;20163;-45
2022/10/19 09:14:34;;;;;;;1.05;0.70;;;;;;;11.78;88.79;102806.75;5038064;28;20226;-44
2022/10/19 09:17:05;;;;;;;1.25;0.70;;;;;;;11.99;89.19;102802.97;5033101;28;20239;-45
2022/10/19 09:19:31;;;;;;;3.47;0.60;;;;;;;12.02;89.41;102803.81;5038128;28;20351;-43
2022/10/19 09:22:01;;;;;;;3.92;0.63;;;;;;;12.13;88.47;102814.41;5031124;28;20275;-45
2022/10/19 09:24:34;;;;;;;1.85;0.65;;;;;;;12.13;87.75;102809.03;5023930;28;20212;-44
2022/10/19 09:27:01;;;;;;;1.27;0.63;;;;;;;11.93;86.86;102810.19;5038029;28;20223;-46
2022/10/19 09:29:43;;;;;;;2.38;0.57;;;;;;;12.05;86.69;102808.28;5046654;28;20725;-46
2022/10/19 09:32:18;;;;;;;1.35;0.47;;;;;;;11.72;87.04;102818.47;5050370;28;20183;-44
2022/10/19 09:34:50;;;;;;;3.40;0.52;;;;;;;11.85;87.76;102824.56;5040297;28;20203;-46
2022/10/19 09:37:16;;;;;;;1.55;0.70;;;;;;;11.99;87.33;102825.34;5036201;28;20214;-46
2022/10/19 09:39:41;;;;;;;0.68;0.32;;;;;;;11.74;87.02;102825.59;5022419;28;20229;-45
2022/10/19 09:42:24;;;;;;;2.83;0.60;;;;;;;11.68;86.93;102832.84;5030750;28;20274;-45
2022/10/19 09:44:51;;;;;;;3.78;0.60;;;;;;;12.15;87.04;102834.97;5038506;28;20243;-44
2022/10/19 09:47:39;;;;;;;1.38;0.50;;;;;;;11.97;86.11;102828.97;5033770;28;20693;-48
2022/10/19 09:50:08;;;;;;;2.58;0.55;;;;;;;12.03;86.04;102828.91;5047400;28;20329;-45
2022/10/19 09:52:36;;;;;;;1.17;0.40;;;;;;;12.01;86.21;102836.09;5049877;28;20187;-46
2022/10/19 09:55:18;;;;;;;2.80;0.40;;;;;;;12.19;86.54;102835.84;5038707;28;20660;-42
2022/10/19 09:57:49;;;;;;;4.47;0.82;;;;;;;12.22;85.94;102840.28;5029976;28;20246;-45
2022/10/19 10:00:21;;;;;;;4.95;0.70;;;;;;;11.97;85.74;102842.41;5046197;28;20655;-45
2022/10/19 10:02:52;;;;;;;0.55;0.38;;;;;;;12.38;85.48;102843.69;5014587;28;20237;-44
2022/10/19 10:05:18;;;;;;;5.45;0.50;;;;;;;12.65;85.26;102837.00;5035407;28;20275;-45
2022/10/19 10:07:44;;;;;;;1.77;0.60;;;;;;;12.68;84.19;102835.19;5031013;28;20506;-46
2022/10/19 10:10:23;;;;;;;0.93;0.60;;;;;;;13.14;83.90;102847.00;5029904;28;20218;-46
2022/10/19 10:12:51;;;;;;;1.13;0.45;;;;;;;12.53;83.02;102838.97;5030007;28;20746;-45
2022/10/19 10:15:22;;;;;;;2.33;0.40;;;;;;;12.31;82.98;102841.06;5035360;28;20271;-43
2022/10/19 10:17:49;;;;;;;0.68;0.40;;;;;;;12.58;82.90;102845.16;5006187;28;20246;-45
2022/10/19 10:20:22;;;;;;;2.47;0.30;;;;;;;12.46;82.90;102848.03;5041735;28;20202;-44
2022/10/19 10:22:56;;;;;;;1.42;0.50;;;;;;;12.37;83.41;102842.78;5043888;28;20264;-45
2022/10/19 10:25:25;;;;;;;1.05;0.32;;;;;;;12.30;83.62;102843.78;5035879;28;20591;-45
2022/10/19 10:27:57;;;;;;;1.33;0.30;;;;;;;12.10;83.89;102836.84;5043869;28;20168;-44
2022/10/19 10:30:23;;;;;;;2.85;0.60;;;;;;;12.48;83.40;102831.88;5048921;28;20182;-44
2022/10/19 10:32:51;;;;;;;0.65;0.30;;;;;;;12.05;80.97;102837.84;5042447;28;20204;-45
2022/10/19 10:35:21;;;;;;;0.70;0.35;;;;;;;12.61;79.29;102837.97;5046172;28;20233;-45
2022/10/19 10:37:47;;;;;;;0.40;0.20;;;;;;;12.93;78.31;102840.19;5018593;28;20319;-45
2022/10/19 10:40:26;;;;;;;0.70;0.30;;;;;;;12.88;76.16;102832.19;5037698;28;20214;-43
2022/10/19 10:42:56;;;;;;;1.73;0.70;;;;;;;12.94;75.09;102831.19;5040302;28;20297;-44
2022/10/19 10:45:33;;;;;;;4.75;0.75;;;;;;;12.96;75.62;102832.94;5046430;28;20588;-45
2022/10/19 10:48:26;;;;;;;2.13;0.30;;;;;;;12.53;74.39;102836.28;5045888;28;20183;-45
2022/10/19 10:50:51;;;;;;;0.82;0.50;;;;;;;12.40;74.72;102834.69;5047218;28;20207;-47
2022/10/19 10:53:42;;;;;;;1.67;0.30;;;;;;;12.22;75.78;102835.78;5049904;28;20483;-45
2022/10/19 10:56:28;;;;;;;1.20;0.30;;;;;;;12.32;75.79;102824.03;5037120;28;20192;-44
2022/10/19 10:59:05;;;;;;;0.60;0.40;;;;;;;12.94;74.97;102826.72;5053239;28;20366;-47
2022/10/19 11:01:39;;;;;;;0.98;0.40;;;;;;;13.06;74.15;102822.03;5053423;28;20289;-44
2022/10/19 11:04:12;;;;;;;1.05;0.50;;;;;;;13.29;73.44;102817.16;5037146;28;20222;-43
2022/10/19 11:06:44;;;;;;;0.65;0.63;;;;;;;13.16;72.50;102818.25;5035699;28;20201;-46
2022/10/19 11:09:22;;;;;;;14.80;2.80;;;;;;;13.30;72.81;102818.94;5045759;28;20669;-46
2022/10/19 11:11:54;;;;;;;1.13;0.52;;;;;;;13.08;72.15;102812.13;5037316;28;20168;-43
2022/10/19 11:14:29;;;;;;;0.50;0.20;;;;;;;12.73;72.30;102818.97;5033752;28;20203;-44
2022/10/19 11:16:58;;;;;;;0.85;0.30;;;;;;;12.96;71.97;102807.81;5042590;28;20239;-45
2022/10/19 11:19:28;;;;;;;1.70;0.28;;;;;;;13.14;71.80;102809.31;5040075;28;20650;-42
2022/10/19 11:22:06;;;;;;;3.05;0.50;;;;;;;13.41;71.33;102809.81;5037027;28;20188;-44
2022/10/19 11:24:44;;;;;;;1.20;0.47;;;;;;;13.38;71.61;102816.09;5033729;28;20203;-45
2022/10/19 11:27:37;;;;;;;0.30;0.30;;;;;;;13.29;70.76;102813.59;5035138;28;20160;-43
2022/10/19 11:30:14;;;;;;;4.13;0.75;;;;;;;13.32;69.07;102806.34;5052562;28;20174;-45